createdAt,value
2019-01-16T00:09:42.569Z,0.0
2019-01-16T00:20:35.644Z,0.0
2019-01-16T00:33:26.935Z,0.0
2019-01-16T00:44:18.851Z,0.0
2019-01-16T00:55:51.711Z,0.0
2019-01-16T01:07:54.752Z,0.0
2019-01-16T01:19:44.493Z,0.0
2019-01-16T01:31:14.426Z,0.0
2019-01-16T01:42:36.738Z,0.0
2019-01-16T01:53:47.572Z,0.0
2019-01-16T02:05:03.438Z,0.0
2019-01-16T02:15:37.100Z,0.0
2019-01-16T02:27:10.937Z,0.0
2019-01-16T02:38:02.829Z,0.0
2019-01-16T02:49:31.677Z,0.0
2019-01-16T03:01:48.891Z,0.0
2019-01-16T03:14:22.419Z,0.0
2019-01-16T03:26:44.984Z,0.0
2019-01-16T03:38:10.882Z,0.0
2019-01-16T03:51:07.106Z,0.0
2019-01-16T04:02:07.351Z,0.0
2019-01-16T04:12:29.151Z,0.0
2019-01-16T04:23:53.352Z,0.0
2019-01-16T04:34:13.230Z,0.0
2019-01-16T04:45:08.569Z,0.0
2019-01-16T04:55:28.422Z,0.0
2019-01-16T05:06:11.669Z,0.0
2019-01-16T05:17:08.072Z,0.0
2019-01-16T05:28:31.597Z,0.0
2019-01-16T05:39:48.614Z,0.0
2019-01-16T05:51:22.160Z,0.0
2019-01-16T06:02:46.243Z,0.0
2019-01-16T06:14:12.748Z,0.0
2019-01-16T06:25:25.678Z,0.0
2019-01-16T06:35:51.735Z,0.0
2019-01-16T06:46:11.251Z,0.0
2019-01-16T06:56:36.320Z,0.0
2019-01-16T07:07:53.801Z,0.0
2019-01-16T07:18:57.048Z,0.0
2019-01-16T07:29:50.292Z,0.0
2019-01-16T07:46:13.297Z,0.0
2019-01-16T07:57:21.758Z,5.0
2019-01-16T08:07:43.247Z,5.0
2019-01-16T08:18:31.170Z,15.0
2019-01-16T08:33:02.752Z,25.0
2019-01-16T08:44:04.343Z,30.0
2019-01-16T08:54:54.546Z,30.0
2019-01-16T09:06:04.720Z,35.0
2019-01-16T09:16:53.626Z,25.0
2019-01-16T09:27:48.600Z,40.0
2019-01-16T09:38:38.517Z,45.0
2019-01-16T09:49:28.236Z,40.0
2019-01-16T10:02:23.377Z,45.0
2019-01-16T10:12:37.804Z,65.0
2019-01-16T10:22:55.219Z,40.0
2019-01-16T10:33:51.374Z,85.0
2019-01-16T10:44:06.132Z,70.0
2019-01-16T10:54:56.496Z,70.0
2019-01-16T11:05:49.792Z,80.0
2019-01-16T11:16:07.764Z,70.0
2019-01-16T11:26:56.437Z,70.0
2019-01-16T11:37:59.816Z,60.0
2019-01-16T11:48:31.229Z,60.0
2019-01-16T11:59:58.143Z,65.0
2019-01-16T12:10:53.755Z,65.0
2019-01-16T12:21:42.100Z,80.0
2019-01-16T12:32:32.733Z,85.0
2019-01-16T12:43:25.327Z,100.0
2019-01-16T12:54:20.981Z,125.0
2019-01-16T13:05:09.364Z,90.0
2019-01-16T13:15:28.744Z,60.0
2019-01-16T13:26:50.458Z,80.0
2019-01-16T13:37:45.502Z,100.0
2019-01-16T13:48:33.904Z,110.0
2019-01-16T13:59:23.821Z,90.0
2019-01-16T14:10:19.245Z,125.0
2019-01-16T14:20:37.000Z,65.0
2019-01-16T14:30:50.990Z,70.0
2019-01-16T14:41:37.717Z,35.0
2019-01-16T14:52:24.494Z,35.0
2019-01-16T15:02:43.396Z,20.0
2019-01-16T15:12:57.052Z,20.0
2019-01-16T15:23:10.373Z,15.0
2019-01-16T15:34:00.596Z,10.0
2019-01-16T15:44:46.338Z,5.0
2019-01-16T15:55:43.290Z,0.0
2019-01-16T16:06:50.648Z,0.0
2019-01-16T16:17:53.487Z,0.0
2019-01-16T16:29:13.366Z,0.0
2019-01-16T16:40:31.275Z,0.0
2019-01-16T16:51:04.399Z,0.0
2019-01-16T17:01:25.195Z,0.0
2019-01-16T17:12:18.919Z,0.0
2019-01-16T17:23:19.149Z,0.0
2019-01-16T17:35:05.640Z,0.0
2019-01-16T17:45:58.620Z,0.0
2019-01-16T17:56:48.568Z,0.0
2019-01-16T18:07:12.838Z,0.0
2019-01-16T18:18:09.500Z,0.0
2019-01-16T18:29:02.911Z,0.0
2019-01-16T18:39:36.575Z,0.0
2019-01-16T18:50:39.466Z,0.0
2019-01-16T19:04:20.332Z,0.0
2019-01-16T21:37:24.347Z,0.0
2019-01-16T21:47:38.243Z,0.0
2019-01-16T21:58:27.741Z,0.0
2019-01-16T22:09:15.263Z,0.0
2019-01-16T22:19:29.166Z,0.0
2019-01-16T22:29:41.437Z,0.0
2019-01-16T22:43:05.652Z,0.0
2019-01-16T23:09:14.358Z,0.0
2019-01-16T23:34:10.216Z,0.0
2019-01-16T23:44:23.985Z,0.0
2019-01-16T23:54:38.441Z,0.0
